createdAt,value
2018-09-12T00:02:25.622Z,3.98
2018-09-12T00:04:53.416Z,4.10
2018-09-12T00:07:21.065Z,3.62
2018-09-12T00:09:50.194Z,3.75
2018-09-12T00:12:17.747Z,4.08
2018-09-12T00:14:45.408Z,4.75
2018-09-12T00:17:13.063Z,4.55
2018-09-12T00:19:40.741Z,3.65
2018-09-12T00:22:08.517Z,4.08
2018-09-12T00:24:36.271Z,4.00
2018-09-12T00:27:03.984Z,3.92
2018-09-12T00:29:31.648Z,3.95
2018-09-12T00:31:59.286Z,4.33
2018-09-12T00:34:26.807Z,4.60
2018-09-12T00:36:54.504Z,4.00
2018-09-12T00:39:22.207Z,3.83
2018-09-12T00:41:49.886Z,4.20
2018-09-12T00:44:17.525Z,4.20
2018-09-12T00:46:45.078Z,4.25
2018-09-12T00:49:12.749Z,4.00
2018-09-12T00:51:42.658Z,4.12
2018-09-12T00:54:10.377Z,4.53
2018-09-12T00:56:37.989Z,4.20
2018-09-12T00:59:05.932Z,4.45
2018-09-12T01:01:33.674Z,4.30
2018-09-12T01:04:01.332Z,4.10
2018-09-12T01:06:29.004Z,4.70
2018-09-12T01:08:56.688Z,4.78
2018-09-12T01:11:24.657Z,4.08
2018-09-12T01:13:55.308Z,4.37
2018-09-12T01:16:22.951Z,4.37
2018-09-12T01:18:50.608Z,4.40
2018-09-12T01:21:18.393Z,4.93
2018-09-12T01:23:45.911Z,4.60
2018-09-12T01:26:13.482Z,5.10
2018-09-12T01:28:41.051Z,5.08
2018-09-12T01:31:08.697Z,5.13
2018-09-12T01:33:36.316Z,5.33
2018-09-12T01:36:05.824Z,5.80
2018-09-12T01:38:33.392Z,5.57
2018-09-12T01:41:00.955Z,5.30
2018-09-12T01:43:28.533Z,5.07
2018-09-12T01:45:56.207Z,4.60
2018-09-12T01:48:23.871Z,4.80
2018-09-12T01:50:51.549Z,5.30
2018-09-12T01:53:19.153Z,5.10
2018-09-12T01:55:46.861Z,5.28
2018-09-12T01:58:14.619Z,4.97
2018-09-12T02:00:42.510Z,4.47
2018-09-12T02:03:10.752Z,5.00
2018-09-12T02:05:38.876Z,4.87
2018-09-12T02:08:06.819Z,4.70
2018-09-12T02:10:34.516Z,4.97
2018-09-12T02:13:02.224Z,5.10
2018-09-12T02:15:30.384Z,4.60
2018-09-12T02:17:58.010Z,4.50
2018-09-12T02:20:25.728Z,4.53
2018-09-12T02:22:53.314Z,4.67
2018-09-12T02:25:21.060Z,5.00
2018-09-12T02:27:48.729Z,5.27
2018-09-12T02:30:16.379Z,5.40
2018-09-12T02:32:44.068Z,5.10
2018-09-12T02:35:11.788Z,5.37
2018-09-12T02:37:39.344Z,5.63
2018-09-12T02:40:07.818Z,5.33
2018-09-12T02:42:35.549Z,5.50
2018-09-12T02:45:03.631Z,5.80
2018-09-12T02:47:35.169Z,5.63
2018-09-12T02:50:03.975Z,5.43
2018-09-12T02:52:31.592Z,5.50
2018-09-12T02:54:59.260Z,5.40
2018-09-12T02:57:26.939Z,5.17
2018-09-12T02:59:54.758Z,6.10
2018-09-12T03:02:22.422Z,5.83
2018-09-12T03:04:50.262Z,6.13
2018-09-12T03:07:17.980Z,6.37
2018-09-12T03:09:45.688Z,5.67
2018-09-12T03:12:13.496Z,6.30
2018-09-12T03:14:41.123Z,5.40
2018-09-12T03:17:08.751Z,5.50
2018-09-12T03:19:36.344Z,5.07
2018-09-12T03:22:04.128Z,5.13
2018-09-12T03:24:31.847Z,5.30
2018-09-12T03:26:59.588Z,5.20
2018-09-12T03:29:27.126Z,5.10
2018-09-12T03:31:54.686Z,5.10
2018-09-12T03:34:22.325Z,4.83
2018-09-12T03:36:50.012Z,5.10
2018-09-12T03:39:17.665Z,5.03
2018-09-12T03:41:45.272Z,5.23
2018-09-12T03:44:13.080Z,5.50
2018-09-12T03:46:41.217Z,4.50
2018-09-12T03:49:09.137Z,4.93
2018-09-12T03:51:36.826Z,4.97
2018-09-12T03:54:04.566Z,5.10
2018-09-12T03:56:32.232Z,4.90
2018-09-12T03:58:59.925Z,5.27
2018-09-12T04:01:27.467Z,5.47
2018-09-12T04:03:54.996Z,5.53
2018-09-12T04:06:22.795Z,5.30
2018-09-12T04:08:50.441Z,4.90
2018-09-12T04:11:18.097Z,5.20
2018-09-12T04:13:45.769Z,4.60
2018-09-12T04:16:13.414Z,4.80
2018-09-12T04:18:41.043Z,5.40
2018-09-12T04:21:08.672Z,5.37
2018-09-12T04:23:36.417Z,5.70
2018-09-12T04:26:05.287Z,4.90
2018-09-12T04:28:32.933Z,5.33
2018-09-12T04:31:00.561Z,5.20
2018-09-12T04:33:28.094Z,4.93
2018-09-12T04:35:55.753Z,5.37
2018-09-12T04:38:23.359Z,5.20
2018-09-12T04:40:51.018Z,5.53
2018-09-12T04:43:19.020Z,5.47
2018-09-12T04:45:46.660Z,5.00
2018-09-12T04:48:14.354Z,5.50
2018-09-12T04:50:42.012Z,5.57
2018-09-12T04:53:09.632Z,6.00
2018-09-12T04:55:37.293Z,5.47
2018-09-12T04:58:05.273Z,6.10
2018-09-12T05:00:32.942Z,5.57
2018-09-12T05:03:00.560Z,5.40
2018-09-12T05:05:28.182Z,5.17
2018-09-12T05:07:55.945Z,6.10
2018-09-12T05:10:23.606Z,5.07
2018-09-12T05:12:51.262Z,5.67
2018-09-12T05:15:18.925Z,6.57
2018-09-12T05:17:46.491Z,6.30
2018-09-12T05:20:14.369Z,5.97
2018-09-12T05:22:41.892Z,6.70
2018-09-12T05:25:09.559Z,6.60
2018-09-12T05:27:37.218Z,6.30
2018-09-12T05:30:05.028Z,6.60
2018-09-12T05:32:32.734Z,6.17
2018-09-12T05:35:00.424Z,6.40
2018-09-12T05:37:28.040Z,6.03
2018-09-12T05:39:55.718Z,6.00
2018-09-12T05:42:23.239Z,6.23
2018-09-12T05:44:50.861Z,6.30
2018-09-12T05:47:18.623Z,6.03
2018-09-12T05:49:48.997Z,6.27
2018-09-12T05:52:16.568Z,6.53
2018-09-12T05:54:44.244Z,6.87
2018-09-12T05:57:11.877Z,6.77
2018-09-12T05:59:39.590Z,6.97
2018-09-12T06:02:07.265Z,6.97
2018-09-12T06:04:34.884Z,6.97
2018-09-12T06:07:02.727Z,7.70
2018-09-12T06:09:30.215Z,8.03
2018-09-12T06:11:57.860Z,7.30
2018-09-12T06:14:25.601Z,7.90
2018-09-12T06:16:53.223Z,7.90
2018-09-12T06:19:20.861Z,8.43
2018-09-12T06:21:48.529Z,8.33
2018-09-12T06:24:16.163Z,7.87
2018-09-12T06:26:43.716Z,8.43
2018-09-12T06:29:11.440Z,8.53
2018-09-12T06:31:40.305Z,7.70
2018-09-12T06:34:07.944Z,7.80
2018-09-12T06:36:35.612Z,8.73
2018-09-12T06:39:04.898Z,7.77
2018-09-12T06:41:32.540Z,8.93
2018-09-12T06:44:00.048Z,8.17
2018-09-12T06:46:27.612Z,8.50
2018-09-12T06:48:55.235Z,8.30
2018-09-12T06:51:22.904Z,8.80
2018-09-12T06:53:50.570Z,8.53
2018-09-12T06:56:18.303Z,8.33
2018-09-12T06:58:45.946Z,8.73
2018-09-12T07:01:13.619Z,8.10
2018-09-12T07:03:41.280Z,8.23
2018-09-12T07:06:08.936Z,8.43
2018-09-12T07:08:36.614Z,8.53
2018-09-12T07:11:04.243Z,8.57
2018-09-12T07:13:31.995Z,8.23
2018-09-12T07:15:59.652Z,9.03
2018-09-12T07:18:27.300Z,8.03
2018-09-12T07:20:54.943Z,8.70
2018-09-12T07:23:22.570Z,10.33
2018-09-12T07:25:50.168Z,11.30
2018-09-12T07:28:17.837Z,10.20
2018-09-12T07:30:45.489Z,12.63
2018-09-12T07:33:13.142Z,11.43
2018-09-12T07:35:40.836Z,13.00
2018-09-12T07:38:08.500Z,13.33
2018-09-12T07:40:36.155Z,11.33
2018-09-12T07:43:03.857Z,12.43
2018-09-12T07:45:31.524Z,13.30
2018-09-12T07:47:59.208Z,12.33
2018-09-12T07:50:26.868Z,12.13
2018-09-12T07:52:54.663Z,12.60
2018-09-12T07:55:22.284Z,12.77
2018-09-12T07:57:49.931Z,13.17
2018-09-12T08:00:17.651Z,13.55
2018-09-12T08:02:45.131Z,13.83
2018-09-12T08:05:12.902Z,13.87
2018-09-12T08:07:40.380Z,14.70
2018-09-12T08:10:08.062Z,15.10
2018-09-12T08:12:35.678Z,14.43
2018-09-12T08:15:03.421Z,15.40
2018-09-12T08:17:33.207Z,13.83
2018-09-12T08:20:00.803Z,15.05
2018-09-12T08:22:28.504Z,14.33
2018-09-12T08:24:56.036Z,13.70
2018-09-12T08:27:23.598Z,12.80
2018-09-12T08:29:51.162Z,13.13
2018-09-12T08:32:18.792Z,12.60
2018-09-12T08:34:46.415Z,11.87
2018-09-12T08:37:14.055Z,11.60
2018-09-12T08:39:43.508Z,11.60
2018-09-12T08:42:11.305Z,12.23
2018-09-12T08:44:39.006Z,12.13
2018-09-12T08:47:06.522Z,12.30
2018-09-12T08:49:34.070Z,12.95
2018-09-12T08:52:01.728Z,12.47
2018-09-12T08:54:29.377Z,12.13
2018-09-12T08:56:57.028Z,13.65
2018-09-12T08:59:24.659Z,14.43
2018-09-12T09:01:52.404Z,14.07
2018-09-12T09:04:20.016Z,13.25
2018-09-12T09:06:47.696Z,12.25
2018-09-12T09:09:15.341Z,12.28
2018-09-12T09:11:42.964Z,12.75
2018-09-12T09:14:10.712Z,12.95
2018-09-12T09:16:38.325Z,12.82
2018-09-12T09:19:06.005Z,11.50
2018-09-12T09:21:33.609Z,11.78
2018-09-12T09:24:03.127Z,11.15
2018-09-12T09:26:30.851Z,11.60
2018-09-12T09:28:58.482Z,14.03
2018-09-12T09:31:26.137Z,14.47
2018-09-12T09:33:53.908Z,14.50
2018-09-12T09:36:21.545Z,13.18
2018-09-12T09:38:49.194Z,12.23
2018-09-12T09:41:16.937Z,13.53
2018-09-12T09:43:44.635Z,12.18
2018-09-12T09:46:12.262Z,10.38
2018-09-12T09:48:39.905Z,11.70
2018-09-12T09:51:07.608Z,10.68
2018-09-12T09:53:35.372Z,10.00
2018-09-12T09:56:03.333Z,10.80
2018-09-12T09:58:30.987Z,10.18
2018-09-12T10:01:04.288Z,10.05
2018-09-12T10:03:37.439Z,8.75
2018-09-12T10:06:12.180Z,8.50
2018-09-12T10:08:45.314Z,8.08
2018-09-12T10:11:12.929Z,8.53
2018-09-12T10:13:40.556Z,8.73
2018-09-12T10:16:08.244Z,9.30
2018-09-12T10:18:35.944Z,8.35
2018-09-12T10:21:03.564Z,8.03
2018-09-12T10:23:31.224Z,9.58
2018-09-12T10:25:58.881Z,9.60
2018-09-12T10:28:26.577Z,8.93
2018-09-12T10:30:54.221Z,9.53
2018-09-12T10:33:22.042Z,10.38
2018-09-12T10:35:49.679Z,10.93
2018-09-12T10:38:17.252Z,11.05
2018-09-12T10:40:44.879Z,13.30
2018-09-12T10:43:12.543Z,12.53
2018-09-12T10:45:40.194Z,11.80
2018-09-12T10:48:07.883Z,12.03
2018-09-12T10:50:37.480Z,12.05
2018-09-12T10:53:05.224Z,12.15
2018-09-12T10:55:32.856Z,13.53
2018-09-12T10:58:00.484Z,14.63
2018-09-12T11:00:28.259Z,13.88
2018-09-12T11:02:56.049Z,12.80
2018-09-12T11:05:24.197Z,12.60
2018-09-12T11:07:51.852Z,11.68
2018-09-12T11:10:19.507Z,11.93
2018-09-12T11:12:48.871Z,11.20
2018-09-12T11:15:16.518Z,11.65
2018-09-12T11:17:44.074Z,12.20
2018-09-12T11:20:11.788Z,11.43
2018-09-12T11:22:39.374Z,12.45
2018-09-12T11:25:07.052Z,12.68
2018-09-12T11:27:34.704Z,13.55
2018-09-12T11:30:02.274Z,13.60
2018-09-12T11:32:29.895Z,13.48
2018-09-12T11:34:57.545Z,12.93
2018-09-12T11:37:25.262Z,14.90
2018-09-12T11:39:53.069Z,14.43
2018-09-12T11:42:20.761Z,15.03
2018-09-12T11:44:48.385Z,15.58
2018-09-12T11:47:16.006Z,15.30
2018-09-12T11:49:43.596Z,15.45
2018-09-12T11:52:11.218Z,15.25
2018-09-12T11:54:38.841Z,13.95
2018-09-12T11:57:06.596Z,13.43
2018-09-12T11:59:34.287Z,14.35
2018-09-12T12:02:01.924Z,12.25
2018-09-12T12:04:29.664Z,10.23
2018-09-12T12:06:57.336Z,11.22
2018-09-12T12:09:25.052Z,9.20
2018-09-12T12:11:52.546Z,8.00
2018-09-12T12:14:20.124Z,8.93
2018-09-12T12:16:50.190Z,7.78
2018-09-12T12:19:17.933Z,7.67
2018-09-12T12:21:45.640Z,7.78
2018-09-12T12:24:13.168Z,9.10
2018-09-12T12:26:40.757Z,6.58
2018-09-12T12:29:08.381Z,6.00
2018-09-12T12:31:36.049Z,5.90
2018-09-12T12:34:03.795Z,6.05
2018-09-12T12:36:31.451Z,6.10
2018-09-12T12:38:59.110Z,6.30
2018-09-12T12:41:26.811Z,5.50
2018-09-12T12:43:54.492Z,6.50
2018-09-12T12:46:22.178Z,6.47
2018-09-12T12:48:49.876Z,6.58
2018-09-12T12:51:17.551Z,7.25
2018-09-12T12:53:45.166Z,6.40
2018-09-12T12:56:12.878Z,6.03
2018-09-12T12:58:40.454Z,5.60
2018-09-12T13:01:08.052Z,5.97
2018-09-12T13:03:35.724Z,5.72
2018-09-12T13:06:03.385Z,6.25
2018-09-12T13:08:31.102Z,6.90
2018-09-12T13:10:58.781Z,9.73
2018-09-12T13:13:26.444Z,7.45
2018-09-12T13:15:54.080Z,7.78
2018-09-12T13:18:21.749Z,8.03
2018-09-12T13:20:51.146Z,7.10
2018-09-12T13:23:18.731Z,6.17
2018-09-12T13:25:46.324Z,7.28
2018-09-12T13:28:13.956Z,8.55
2018-09-12T13:30:41.582Z,8.75
2018-09-12T13:33:09.166Z,9.33
2018-09-12T13:35:36.834Z,9.58
2018-09-12T13:38:04.547Z,9.23
2018-09-12T13:40:32.265Z,7.22
2018-09-12T13:43:02.324Z,8.05
2018-09-12T13:45:29.997Z,6.22
2018-09-12T13:47:58.528Z,5.95
2018-09-12T13:50:26.213Z,5.80
2018-09-12T13:52:53.848Z,5.97
2018-09-12T13:55:21.505Z,4.97
2018-09-12T13:57:49.103Z,5.22
2018-09-12T14:00:16.624Z,5.03
2018-09-12T14:02:44.240Z,5.05
2018-09-12T14:05:11.959Z,5.00
2018-09-12T14:07:39.594Z,5.85
2018-09-12T14:10:07.240Z,4.75
2018-09-12T14:12:34.879Z,4.67
2018-09-12T14:15:02.562Z,4.15
2018-09-12T14:17:30.463Z,3.72
2018-09-12T14:19:58.437Z,3.70
2018-09-12T14:22:26.124Z,3.40
2018-09-12T14:24:54.997Z,3.25
2018-09-12T14:27:22.638Z,3.23
2018-09-12T14:29:50.257Z,3.27
2018-09-12T14:32:17.908Z,2.97
2018-09-12T14:34:45.561Z,3.07
2018-09-12T14:37:13.232Z,2.83
2018-09-12T14:39:40.893Z,2.87
2018-09-12T14:42:08.590Z,2.37
2018-09-12T14:44:36.199Z,2.27
2018-09-12T14:47:03.869Z,2.40
2018-09-12T14:49:31.494Z,2.50
2018-09-12T14:51:59.139Z,3.30
2018-09-12T14:54:26.856Z,3.13
2018-09-12T14:56:54.576Z,4.37
2018-09-12T14:59:22.241Z,3.90
2018-09-12T15:01:49.900Z,4.27
2018-09-12T15:04:17.573Z,4.00
2018-09-12T15:06:46.718Z,3.57
2018-09-12T15:09:14.463Z,2.90
2018-09-12T15:11:42.020Z,2.83
2018-09-12T15:14:10.272Z,2.90
2018-09-12T15:16:38.049Z,2.60
2018-09-12T15:19:05.606Z,2.90
2018-09-12T15:21:33.277Z,2.87
2018-09-12T15:24:00.944Z,3.10
2018-09-12T15:26:28.605Z,3.67
2018-09-12T15:28:56.161Z,3.77
2018-09-12T15:31:23.981Z,4.37
2018-09-12T15:33:51.745Z,4.60
2018-09-12T15:36:19.410Z,4.30
2018-09-12T15:38:47.122Z,4.63
2018-09-12T15:41:14.807Z,5.47
2018-09-12T15:43:42.509Z,5.23
2018-09-12T15:46:10.333Z,6.00
2018-09-12T15:48:37.834Z,5.83
2018-09-12T15:51:05.475Z,6.33
2018-09-12T15:53:33.055Z,6.23
2018-09-12T15:56:00.740Z,6.87
2018-09-12T15:58:28.345Z,6.77
2018-09-12T16:00:56.008Z,7.10
2018-09-12T16:03:23.722Z,7.73
2018-09-12T16:05:51.436Z,7.17
2018-09-12T16:08:19.107Z,8.27
2018-09-12T16:10:48.386Z,7.70
2018-09-12T16:13:16.061Z,7.17
2018-09-12T16:15:43.676Z,7.30
2018-09-12T16:18:11.396Z,7.37
2018-09-12T16:20:38.949Z,7.10
2018-09-12T16:23:06.773Z,7.33
2018-09-12T16:25:34.379Z,5.97
2018-09-12T16:28:02.015Z,7.97
2018-09-12T16:30:29.656Z,6.73
2018-09-12T16:32:57.409Z,7.93
2018-09-12T16:35:25.077Z,7.27
2018-09-12T16:37:52.747Z,7.70
2018-09-12T16:40:20.432Z,7.27
2018-09-12T16:42:47.986Z,6.80
2018-09-12T16:45:15.728Z,6.77
2018-09-12T16:47:43.352Z,6.93
2018-09-12T16:50:11.083Z,6.33
2018-09-12T16:52:38.828Z,6.33
2018-09-12T16:55:06.636Z,5.43
2018-09-12T16:57:34.264Z,5.80
2018-09-12T17:00:02.002Z,4.73
2018-09-12T17:02:29.680Z,4.90
2018-09-12T17:04:57.339Z,5.03
2018-09-12T17:07:25.049Z,4.77
2018-09-12T17:09:52.707Z,4.20
2018-09-12T17:12:20.362Z,5.23
2018-09-12T17:14:48.455Z,5.23
2018-09-12T17:17:16.106Z,6.00
2018-09-12T17:19:43.741Z,5.80
2018-09-12T17:22:11.404Z,6.50
2018-09-12T17:24:39.102Z,6.60
2018-09-12T17:27:06.750Z,8.37
2018-09-12T17:29:34.912Z,8.50
2018-09-12T17:32:02.546Z,8.73
2018-09-12T17:34:30.214Z,8.90
2018-09-12T17:36:57.885Z,10.03
2018-09-12T17:39:25.539Z,9.87
2018-09-12T17:41:53.200Z,10.17
2018-09-12T17:44:20.864Z,9.50
2018-09-12T17:46:48.475Z,8.20
2018-09-12T17:49:16.109Z,9.13
2018-09-12T17:51:43.819Z,8.10
2018-09-12T17:54:11.534Z,7.70
2018-09-12T17:56:40.666Z,7.67
2018-09-12T17:59:08.267Z,7.87
2018-09-12T18:01:36.007Z,7.40
2018-09-12T18:04:03.651Z,6.77
2018-09-12T18:06:31.292Z,7.20
2018-09-12T18:08:58.938Z,6.77
2018-09-12T18:11:26.666Z,6.53
2018-09-12T18:13:54.278Z,7.43
2018-09-12T18:16:21.963Z,6.27
2018-09-12T18:18:49.621Z,5.53
2018-09-12T18:21:17.318Z,6.27
2018-09-12T18:23:44.953Z,5.20
2018-09-12T18:26:12.612Z,5.93
2018-09-12T18:28:40.280Z,6.00
2018-09-12T18:31:07.916Z,5.57
2018-09-12T18:33:35.499Z,5.43
2018-09-12T18:36:03.286Z,5.27
2018-09-12T18:38:30.904Z,5.47
2018-09-12T18:40:58.570Z,5.93
2018-09-12T18:43:26.206Z,5.80
2018-09-12T18:45:53.814Z,6.53
2018-09-12T18:48:21.472Z,6.33
2018-09-12T18:50:49.154Z,6.30
2018-09-12T18:53:16.810Z,5.80
2018-09-12T18:55:44.460Z,5.60
2018-09-12T18:58:12.267Z,6.47
2018-09-12T19:00:39.896Z,6.10
2018-09-12T19:03:07.552Z,6.00
2018-09-12T19:05:35.239Z,6.27
2018-09-12T19:08:02.873Z,6.23
2018-09-12T19:10:30.560Z,5.40
2018-09-12T19:12:58.510Z,5.57
2018-09-12T19:15:26.152Z,6.13
2018-09-12T19:17:54.139Z,5.47
2018-09-12T19:20:21.781Z,5.33
2018-09-12T19:22:49.435Z,5.97
2018-09-12T19:25:17.128Z,5.73
2018-09-12T19:27:44.671Z,6.03
2018-09-12T19:30:12.204Z,5.70
2018-09-12T19:32:39.848Z,6.20
2018-09-12T19:35:07.580Z,6.60
2018-09-12T19:37:35.296Z,6.20
2018-09-12T19:40:03.064Z,6.40
2018-09-12T19:42:32.144Z,6.20
2018-09-12T19:45:00.038Z,6.33
2018-09-12T19:47:27.677Z,5.87
2018-09-12T19:49:55.420Z,6.80
2018-09-12T19:52:23.035Z,5.83
2018-09-12T19:54:50.703Z,6.60
2018-09-12T19:57:18.365Z,6.43
2018-09-12T19:59:46.002Z,6.40
2018-09-12T20:02:22.715Z,6.43
2018-09-12T20:04:50.477Z,6.77
2018-09-12T20:07:18.385Z,6.67
2018-09-12T20:09:46.007Z,6.30
2018-09-12T20:12:13.683Z,6.50
2018-09-12T20:14:41.388Z,7.07
2018-09-12T20:17:09.142Z,6.47
2018-09-12T20:19:36.777Z,6.87
2018-09-12T20:22:05.044Z,6.50
2018-09-12T20:24:32.709Z,6.90
2018-09-12T20:27:00.561Z,6.70
2018-09-12T20:29:28.362Z,7.10
2018-09-12T20:31:56.013Z,7.23
2018-09-12T20:34:23.752Z,7.07
2018-09-12T20:36:51.396Z,6.90
2018-09-12T20:39:19.132Z,6.97
2018-09-12T20:41:46.696Z,7.43
2018-09-12T20:44:14.324Z,7.20
2018-09-12T20:46:41.943Z,7.20
2018-09-12T20:49:09.691Z,7.37
2018-09-12T20:51:37.427Z,8.10
2018-09-12T20:54:05.440Z,7.30
2018-09-12T20:56:33.149Z,7.40
2018-09-12T20:59:00.802Z,7.83
2018-09-12T21:01:28.437Z,6.60
2018-09-12T21:03:56.076Z,7.93
2018-09-12T21:06:23.671Z,7.90
2018-09-12T21:08:51.220Z,7.83
2018-09-12T21:11:18.853Z,7.87
2018-09-12T21:13:46.588Z,8.20
2018-09-12T21:16:14.255Z,8.07
2018-09-12T21:18:41.942Z,8.90
2018-09-12T21:21:09.764Z,8.63
2018-09-12T21:23:37.459Z,8.17
2018-09-12T21:26:05.109Z,8.27
2018-09-12T21:28:34.429Z,9.47
2018-09-12T21:31:02.107Z,8.40
2018-09-12T21:33:29.764Z,7.47
2018-09-12T21:35:57.491Z,8.43
2018-09-12T21:38:25.162Z,8.77
2018-09-12T21:40:52.866Z,9.73
2018-09-12T21:43:20.596Z,9.40
2018-09-12T21:45:48.323Z,9.20
2018-09-12T21:48:15.919Z,9.00
2018-09-12T21:50:44.685Z,8.67
2018-09-12T21:53:12.227Z,7.93
2018-09-12T21:55:39.990Z,9.10
2018-09-12T21:58:07.632Z,9.70
2018-09-12T22:00:35.401Z,9.37
2018-09-12T22:03:03.113Z,9.00
2018-09-12T22:05:30.740Z,8.70
2018-09-12T22:07:58.460Z,8.00
2018-09-12T22:10:26.068Z,7.23
2018-09-12T22:12:53.701Z,6.80
2018-09-12T22:15:21.362Z,6.10
2018-09-12T22:17:49.053Z,5.70
2018-09-12T22:20:16.688Z,4.97
2018-09-12T22:22:44.222Z,5.70
2018-09-12T22:25:11.890Z,5.33
2018-09-12T22:27:39.561Z,5.13
2018-09-12T22:30:07.816Z,5.13
2018-09-12T22:32:35.475Z,5.20
2018-09-12T22:35:03.175Z,5.43
2018-09-12T22:37:30.814Z,5.77
2018-09-12T22:39:59.461Z,5.27
2018-09-12T22:42:27.096Z,5.90
2018-09-12T22:44:54.659Z,5.83
2018-09-12T22:47:22.283Z,6.33
2018-09-12T22:49:49.907Z,7.20
2018-09-12T22:52:17.539Z,6.93
2018-09-12T22:54:45.283Z,8.73
2018-09-12T22:57:12.919Z,9.60
2018-09-12T22:59:40.537Z,11.07
2018-09-12T23:02:08.165Z,11.20
2018-09-12T23:04:35.799Z,9.93
2018-09-12T23:07:03.473Z,9.20
2018-09-12T23:09:31.124Z,7.87
2018-09-12T23:11:58.681Z,7.67
2018-09-12T23:14:26.204Z,7.53
2018-09-12T23:16:53.896Z,7.00
2018-09-12T23:19:21.557Z,7.50
2018-09-12T23:21:49.188Z,6.63
2018-09-12T23:24:16.841Z,8.00
2018-09-12T23:26:44.459Z,7.50
2018-09-12T23:29:12.096Z,7.30
2018-09-12T23:31:39.735Z,7.40
2018-09-12T23:34:07.329Z,6.73
2018-09-12T23:36:34.944Z,6.57
2018-09-12T23:39:02.743Z,6.73
2018-09-12T23:41:30.407Z,7.07
2018-09-12T23:43:58.058Z,7.53
2018-09-12T23:46:25.663Z,6.00
2018-09-12T23:48:53.282Z,7.23
2018-09-12T23:51:20.879Z,7.93
2018-09-12T23:53:48.532Z,7.83
2018-09-12T23:56:16.164Z,8.20
2018-09-12T23:58:46.405Z,7.80
